Time;durP1;ratioP1;P1;durP2;ratioP2;P2;SDS_P1;SDS_P2;PMS_P1;PMS_P2;Temp;Humidity;BMP_temperature;BMP_pressure;BME280_temperature;BME280_humidity;BME280_pressure;Samples;Min_cycle;Max_cycle;Signal;HPM_P1;HPM_P2
2022/04/09 00:02:14;;;;;;;;;;;15.50;57.30;;;;;;5100815;28;20188;-67
2022/04/09 00:04:40;;;;;;;;;;;15.50;57.20;;;;;;5100651;28;19908;-66
2022/04/09 00:07:05;;;;;;;;;;;15.50;57.20;;;;;;5100591;28;19900;-67
2022/04/09 00:09:31;;;;;;;;;;;15.50;57.20;;;;;;5100569;28;19908;-67
2022/04/09 00:11:56;;;;;;;;;;;15.50;57.20;;;;;;5100497;28;19999;-67
2022/04/09 00:14:23;;;;;;;;;;;15.50;57.20;;;;;;5100417;28;20195;-67
2022/04/09 00:16:49;;;;;;;;;;;15.50;57.20;;;;;;5100394;28;19915;-66
2022/04/09 00:19:14;;;;;;;;;;;15.50;57.20;;;;;;5098941;28;19908;-67
2022/04/09 00:21:40;;;;;;;;;;;15.50;57.20;;;;;;5100336;28;20017;-67
2022/04/09 00:24:05;;;;;;;;;;;15.50;57.20;;;;;;5100353;28;19900;-67
2022/04/09 00:26:31;;;;;;;;;;;15.50;57.20;;;;;;5100272;28;19900;-67
2022/04/09 00:28:56;;;;;;;;;;;15.50;57.30;;;;;;5100526;28;19915;-68
2022/04/09 00:31:22;;;;;;;;;;;15.50;57.30;;;;;;5100454;28;19923;-67
2022/04/09 00:33:47;;;;;;;;;;;15.50;57.20;;;;;;5100270;28;19900;-66
2022/04/09 00:36:13;;;;;;;;;;;15.50;57.20;;;;;;5100340;28;19908;-66
2022/04/09 00:38:39;;;;;;;;;;;15.50;57.20;;;;;;5100087;28;19908;-67
2022/04/09 00:41:04;;;;;;;;;;;15.50;57.20;;;;;;5100383;28;19912;-66
2022/04/09 00:43:30;;;;;;;;;;;15.50;57.20;;;;;;5100097;28;19975;-66
2022/04/09 00:45:55;;;;;;;;;;;15.40;57.20;;;;;;5100049;28;19907;-67
2022/04/09 00:48:22;;;;;;;;;;;15.50;57.20;;;;;;5099951;28;19911;-67
2022/04/09 00:50:48;;;;;;;;;;;15.40;57.10;;;;;;5100353;28;20076;-67
2022/04/09 00:53:18;;;;;;;;;;;15.50;57.20;;;;;;5099918;28;20119;-67
2022/04/09 00:58:28;;;;;;;;;;;15.50;57.30;;;;;;5099929;28;19911;-67
2022/04/09 01:00:54;;;;;;;;;;;15.40;57.20;;;;;;5099916;28;19915;-66
2022/04/09 01:03:21;;;;;;;;;;;15.40;57.20;;;;;;5100129;28;19943;-67
2022/04/09 01:05:49;;;;;;;;;;;15.40;57.20;;;;;;5099896;28;19915;-66
2022/04/09 01:08:15;;;;;;;;;;;15.40;57.10;;;;;;5100096;28;20021;-67
2022/04/09 01:10:44;;;;;;;;;;;15.40;57.20;;;;;;5100096;28;20213;-67
2022/04/09 01:13:10;;;;;;;;;;;15.40;57.20;;;;;;5100021;28;20108;-66
2022/04/09 01:15:35;;;;;;;;;;;15.40;57.10;;;;;;5099833;28;19908;-66
2022/04/09 01:18:01;;;;;;;;;;;15.40;57.10;;;;;;5099695;28;19908;-67
2022/04/09 01:20:28;;;;;;;;;;;15.40;57.20;;;;;;5100013;28;19907;-67
2022/04/09 01:22:54;;;;;;;;;;;15.40;57.20;;;;;;5099908;28;20378;-67
2022/04/09 01:25:20;;;;;;;;;;;15.40;57.20;;;;;;5099899;28;19930;-67
2022/04/09 01:27:47;;;;;;;;;;;15.40;57.20;;;;;;5099703;28;20243;-67
2022/04/09 01:30:13;;;;;;;;;;;15.40;57.10;;;;;;5099513;28;19911;-67
2022/04/09 01:32:38;;;;;;;;;;;15.40;57.20;;;;;;5102533;28;19977;-68
2022/04/09 01:35:04;;;;;;;;;;;15.40;57.10;;;;;;5103308;28;19944;-66
2022/04/09 01:37:31;;;;;;;;;;;15.40;57.10;;;;;;5103430;28;20194;-67
2022/04/09 01:39:57;;;;;;;;;;;15.40;57.10;;;;;;5103420;28;19908;-67
2022/04/09 01:42:26;;;;;;;;;;;15.50;57.20;;;;;;5103072;28;20159;-66
2022/04/09 01:44:54;;;;;;;;;;;15.40;57.10;;;;;;5102982;28;20244;-67
2022/04/09 01:47:20;;;;;;;;;;;15.40;57.20;;;;;;5102948;28;19920;-67
2022/04/09 01:49:46;;;;;;;;;;;15.40;57.20;;;;;;5102999;28;19983;-67
2022/04/09 01:52:11;;;;;;;;;;;15.40;57.20;;;;;;5103003;28;19915;-67
2022/04/09 01:54:37;;;;;;;;;;;15.40;57.20;;;;;;5102907;28;19908;-67
2022/04/09 01:57:02;;;;;;;;;;;15.40;57.20;;;;;;5102719;28;19904;-67
2022/04/09 01:59:28;;;;;;;;;;;15.40;57.20;;;;;;5102868;28;19965;-67
2022/04/09 02:01:53;;;;;;;;;;;15.40;57.10;;;;;;5103028;28;19908;-67
2022/04/09 02:04:20;;;;;;;;;;;15.40;57.10;;;;;;5102743;28;20557;-66
2022/04/09 02:06:46;;;;;;;;;;;15.40;57.10;;;;;;5102661;28;19900;-68
2022/04/09 02:09:11;;;;;;;;;;;15.40;57.10;;;;;;5102617;28;19954;-67
2022/04/09 02:11:39;;;;;;;;;;;15.40;57.10;;;;;;5102579;28;19915;-68
2022/04/09 02:14:08;;;;;;;;;;;15.40;57.10;;;;;;5102475;28;19904;-67
2022/04/09 02:16:34;;;;;;;;;;;15.40;57.20;;;;;;5102612;28;19912;-67
2022/04/09 02:19:00;;;;;;;;;;;15.40;57.10;;;;;;5102506;28;19908;-67
2022/04/09 02:21:26;;;;;;;;;;;15.40;57.10;;;;;;5102437;28;19907;-67
2022/04/09 02:23:51;;;;;;;;;;;15.40;57.10;;;;;;5102388;28;19907;-67
2022/04/09 02:26:17;;;;;;;;;;;15.40;57.10;;;;;;5102285;28;19908;-67
2022/04/09 02:28:46;;;;;;;;;;;15.40;57.10;;;;;;5102196;28;19958;-66
2022/04/09 02:31:12;;;;;;;;;;;15.40;57.10;;;;;;5102132;28;20227;-67
2022/04/09 02:33:38;;;;;;;;;;;15.40;57.10;;;;;;5102107;28;19906;-66
2022/04/09 02:36:05;;;;;;;;;;;15.40;57.20;;;;;;5102066;28;19908;-67
2022/04/09 02:38:31;;;;;;;;;;;15.40;57.20;;;;;;5102176;28;19904;-67
2022/04/09 02:40:56;;;;;;;;;;;15.40;57.20;;;;;;5102233;28;19908;-68
2022/04/09 02:43:22;;;;;;;;;;;15.40;57.10;;;;;;5101870;28;20247;-67
2022/04/09 02:45:47;;;;;;;;;;;15.40;57.10;;;;;;5101900;28;19900;-66
2022/04/09 02:48:14;;;;;;;;;;;15.40;57.10;;;;;;5101597;28;19919;-66
2022/04/09 02:50:40;;;;;;;;;;;15.40;57.10;;;;;;5102002;28;19912;-67
2022/04/09 02:53:09;;;;;;;;;;;15.40;57.20;;;;;;5101772;28;20361;-67
2022/04/09 02:55:34;;;;;;;;;;;15.40;57.10;;;;;;5101734;28;20343;-66
2022/04/09 02:58:01;;;;;;;;;;;15.40;57.10;;;;;;5101590;28;19941;-67
2022/04/09 03:00:27;;;;;;;;;;;15.40;57.20;;;;;;5101663;28;19908;-67
2022/04/09 03:02:52;;;;;;;;;;;15.40;57.20;;;;;;5101580;28;19900;-67
2022/04/09 03:05:19;;;;;;;;;;;15.40;57.20;;;;;;5101539;28;19953;-68
2022/04/09 03:07:44;;;;;;;;;;;15.40;57.20;;;;;;5101469;28;20107;-66
2022/04/09 03:10:10;;;;;;;;;;;15.40;57.20;;;;;;5101659;28;19908;-66
2022/04/09 03:12:35;;;;;;;;;;;15.40;57.20;;;;;;5101429;28;20249;-66
2022/04/09 03:15:01;;;;;;;;;;;15.40;57.20;;;;;;5101282;28;19908;-66
2022/04/09 03:17:27;;;;;;;;;;;15.40;57.20;;;;;;5101256;28;19919;-67
2022/04/09 03:19:52;;;;;;;;;;;15.30;57.20;;;;;;5101412;28;19904;-66
2022/04/09 03:22:18;;;;;;;;;;;15.40;57.20;;;;;;5101537;28;19934;-67
2022/04/09 03:24:43;;;;;;;;;;;15.40;57.20;;;;;;5101139;28;19924;-67
2022/04/09 03:27:09;;;;;;;;;;;15.40;57.20;;;;;;5101100;28;19908;-67
2022/04/09 03:29:34;;;;;;;;;;;15.40;57.20;;;;;;5101046;28;19907;-67
2022/04/09 03:32:01;;;;;;;;;;;15.40;57.10;;;;;;5101014;28;19915;-66
2022/04/09 03:34:27;;;;;;;;;;;15.40;57.10;;;;;;5101179;28;19969;-66
2022/04/09 03:36:53;;;;;;;;;;;15.40;57.10;;;;;;5100836;28;19904;-66
2022/04/09 03:39:18;;;;;;;;;;;15.40;57.20;;;;;;5100923;28;19930;-66
2022/04/09 03:41:44;;;;;;;;;;;15.40;57.10;;;;;;5100864;28;19916;-67
2022/04/09 03:44:09;;;;;;;;;;;15.30;57.10;;;;;;5100848;28;20118;-66
2022/04/09 03:46:35;;;;;;;;;;;15.30;57.20;;;;;;5100632;28;19923;-66
2022/04/09 03:49:01;;;;;;;;;;;15.30;57.20;;;;;;5100881;28;19903;-67
2022/04/09 03:51:26;;;;;;;;;;;15.30;57.20;;;;;;5100897;28;19994;-66
2022/04/09 03:53:52;;;;;;;;;;;15.30;57.20;;;;;;5100086;28;19915;-66
2022/04/09 03:56:19;;;;;;;;;;;15.30;57.20;;;;;;5100736;28;19950;-66
2022/04/09 03:58:45;;;;;;;;;;;15.30;57.20;;;;;;5100735;28;20127;-66
2022/04/09 04:01:10;;;;;;;;;;;15.30;57.10;;;;;;5100669;28;19904;-67
2022/04/09 04:03:37;;;;;;;;;;;15.30;57.10;;;;;;5100479;28;19961;-66
2022/04/09 04:06:03;;;;;;;;;;;15.30;57.20;;;;;;5100428;28;19900;-66
2022/04/09 04:08:28;;;;;;;;;;;15.40;57.20;;;;;;5100368;28;19923;-67
2022/04/09 04:10:54;;;;;;;;;;;15.30;57.10;;;;;;5100312;28;19908;-67
2022/04/09 04:13:19;;;;;;;;;;;15.30;57.20;;;;;;5100287;28;19908;-67
2022/04/09 04:15:46;;;;;;;;;;;15.30;57.20;;;;;;5100264;28;19908;-67
2022/04/09 04:18:12;;;;;;;;;;;15.30;57.20;;;;;;5098828;28;19920;-68
2022/04/09 04:20:37;;;;;;;;;;;15.30;57.20;;;;;;5100262;28;19900;-67
2022/04/09 04:23:03;;;;;;;;;;;15.30;57.20;;;;;;5100141;28;20394;-66
2022/04/09 04:25:29;;;;;;;;;;;15.30;57.10;;;;;;5100155;28;19908;-66
2022/04/09 04:27:54;;;;;;;;;;;15.30;57.10;;;;;;5100112;28;20099;-67
2022/04/09 04:30:20;;;;;;;;;;;15.30;57.20;;;;;;5100063;28;19908;-67
2022/04/09 04:32:46;;;;;;;;;;;15.30;57.20;;;;;;5100052;28;19960;-67
2022/04/09 04:35:11;;;;;;;;;;;15.30;57.20;;;;;;5100059;28;20239;-67
2022/04/09 04:37:42;;;;;;;;;;;15.30;57.20;;;;;;5099981;28;19932;-67
2022/04/09 04:40:08;;;;;;;;;;;15.30;57.10;;;;;;5099995;28;20204;-67
2022/04/09 04:42:34;;;;;;;;;;;15.30;57.10;;;;;;5099977;28;19930;-66
2022/04/09 04:44:59;;;;;;;;;;;15.30;57.10;;;;;;5100274;28;20212;-66
2022/04/09 04:47:25;;;;;;;;;;;15.30;57.10;;;;;;5099686;28;19924;-66
2022/04/09 04:49:51;;;;;;;;;;;15.30;57.10;;;;;;5099867;28;19910;-67
2022/04/09 04:52:16;;;;;;;;;;;15.30;57.20;;;;;;5099773;28;19915;-67
2022/04/09 04:54:42;;;;;;;;;;;15.30;57.20;;;;;;5099727;28;19914;-67
2022/04/09 04:57:08;;;;;;;;;;;15.30;57.20;;;;;;5099739;28;19904;-66
2022/04/09 04:59:33;;;;;;;;;;;15.30;57.10;;;;;;5099732;28;19907;-66
2022/04/09 05:01:59;;;;;;;;;;;15.40;57.10;;;;;;5099758;28;19931;-67
2022/04/09 05:04:27;;;;;;;;;;;15.30;57.00;;;;;;5099773;28;20104;-66
2022/04/09 05:06:52;;;;;;;;;;;15.30;57.00;;;;;;5100576;28;19904;-67
2022/04/09 05:09:18;;;;;;;;;;;15.30;57.00;;;;;;5103762;28;19915;-67
2022/04/09 05:11:44;;;;;;;;;;;15.30;57.00;;;;;;5103744;28;20111;-67
2022/04/09 05:14:10;;;;;;;;;;;15.30;57.00;;;;;;5103678;28;19912;-67
2022/04/09 05:16:35;;;;;;;;;;;15.30;57.10;;;;;;5103554;28;19912;-66
2022/04/09 05:19:01;;;;;;;;;;;15.30;57.10;;;;;;5103481;28;20365;-66
2022/04/09 05:21:26;;;;;;;;;;;15.30;57.00;;;;;;5103586;28;19943;-66
2022/04/09 05:23:52;;;;;;;;;;;15.30;57.00;;;;;;5103421;28;19914;-67
2022/04/09 05:26:17;;;;;;;;;;;15.30;57.00;;;;;;5103526;28;19900;-66
2022/04/09 05:28:43;;;;;;;;;;;15.30;57.00;;;;;;5103654;28;20275;-67
2022/04/09 05:31:15;;;;;;;;;;;15.30;57.00;;;;;;5103348;28;20104;-66
2022/04/09 05:33:41;;;;;;;;;;;15.30;57.00;;;;;;5103324;28;19908;-66
2022/04/09 05:36:06;;;;;;;;;;;15.30;56.90;;;;;;5103235;28;19931;-67
2022/04/09 05:38:32;;;;;;;;;;;15.30;57.60;;;;;;5103105;28;19912;-68
2022/04/09 05:40:58;;;;;;;;;;;15.30;56.90;;;;;;5103217;28;19943;-67
2022/04/09 05:43:24;;;;;;;;;;;15.30;57.00;;;;;;5103092;28;19908;-66
2022/04/09 05:45:50;;;;;;;;;;;15.30;57.00;;;;;;5103399;28;19914;-66
2022/04/09 05:48:15;;;;;;;;;;;15.30;57.10;;;;;;5102802;28;20138;-67
2022/04/09 05:50:41;;;;;;;;;;;15.30;57.10;;;;;;5103051;28;19900;-67
2022/04/09 05:53:06;;;;;;;;;;;15.30;57.00;;;;;;5102897;28;19908;-67
2022/04/09 05:55:32;;;;;;;;;;;15.30;57.00;;;;;;5102934;28;19949;-67
2022/04/09 05:57:58;;;;;;;;;;;15.30;57.10;;;;;;5102814;28;19904;-66
2022/04/09 06:00:23;;;;;;;;;;;15.30;57.10;;;;;;5102813;28;19915;-67
2022/04/09 06:02:49;;;;;;;;;;;15.30;57.00;;;;;;5102718;28;19974;-66
2022/04/09 06:05:15;;;;;;;;;;;15.30;57.10;;;;;;5102736;28;19979;-67
2022/04/09 06:07:40;;;;;;;;;;;15.30;57.00;;;;;;5102641;28;19908;-67
2022/04/09 06:10:06;;;;;;;;;;;15.30;57.00;;;;;;5102591;28;19971;-67
2022/04/09 06:12:35;;;;;;;;;;;15.30;57.00;;;;;;5102538;28;19908;-66
2022/04/09 06:15:01;;;;;;;;;;;15.30;57.00;;;;;;5102506;28;19908;-66
2022/04/09 06:17:27;;;;;;;;;;;15.30;57.00;;;;;;5101944;28;19912;-66
2022/04/09 06:19:53;;;;;;;;;;;15.30;57.00;;;;;;5102400;28;19946;-66
2022/04/09 06:22:18;;;;;;;;;;;15.30;57.00;;;;;;5102306;28;19908;-66
2022/04/09 06:24:44;;;;;;;;;;;15.30;56.90;;;;;;5102378;28;20454;-67
2022/04/09 06:27:12;;;;;;;;;;;15.30;56.90;;;;;;5102291;28;19919;-68
2022/04/09 06:29:38;;;;;;;;;;;15.30;56.90;;;;;;5102348;28;20102;-67
2022/04/09 06:32:04;;;;;;;;;;;15.30;57.00;;;;;;5102240;28;19908;-66
2022/04/09 06:34:30;;;;;;;;;;;15.30;57.00;;;;;;5102208;28;19908;-67
2022/04/09 06:36:55;;;;;;;;;;;15.30;57.10;;;;;;5102051;28;19904;-66
2022/04/09 06:39:23;;;;;;;;;;;15.30;57.10;;;;;;5102041;28;19900;-66
2022/04/09 06:41:49;;;;;;;;;;;15.30;57.10;;;;;;5102025;28;19908;-66
2022/04/09 06:44:15;;;;;;;;;;;15.30;57.10;;;;;;5101957;28;19915;-67
2022/04/09 06:46:43;;;;;;;;;;;15.30;57.10;;;;;;5101716;28;19900;-66
2022/04/09 06:49:15;;;;;;;;;;;15.30;57.10;;;;;;5101970;28;19908;-67
2022/04/09 06:51:41;;;;;;;;;;;15.30;57.10;;;;;;5101870;28;19947;-67
2022/04/09 06:54:07;;;;;;;;;;;15.30;57.10;;;;;;5101811;28;19900;-67
2022/04/09 06:56:32;;;;;;;;;;;15.30;57.70;;;;;;5101625;28;19981;-66
2022/04/09 06:58:58;;;;;;;;;;;15.30;57.20;;;;;;5100410;28;19918;-66
2022/04/09 07:01:25;;;;;;;;;;;15.20;57.10;;;;;;5101656;28;20270;-67
2022/04/09 07:03:51;;;;;;;;;;;15.30;57.20;;;;;;5101610;28;19970;-65
2022/04/09 07:06:17;;;;;;;;;;;15.30;57.20;;;;;;5101526;28;20149;-67
2022/04/09 07:08:43;;;;;;;;;;;15.30;57.20;;;;;;5101494;28;19924;-66
2022/04/09 07:11:08;;;;;;;;;;;15.30;57.10;;;;;;5101453;28;20111;-67
2022/04/09 07:13:34;;;;;;;;;;;15.30;57.10;;;;;;5101397;28;20188;-67
2022/04/09 07:15:59;;;;;;;;;;;15.30;57.20;;;;;;5101387;28;19908;-67
2022/04/09 07:18:25;;;;;;;;;;;15.30;57.20;;;;;;5101162;28;19957;-66
2022/04/09 07:20:50;;;;;;;;;;;15.20;57.20;;;;;;5101251;28;19900;-68
2022/04/09 07:23:16;;;;;;;;;;;15.20;57.20;;;;;;5101198;28;19900;-66
2022/04/09 07:25:42;;;;;;;;;;;15.30;57.20;;;;;;5101127;28;19939;-66
2022/04/09 07:28:09;;;;;;;;;;;15.20;57.20;;;;;;5099761;28;20188;-66
2022/04/09 07:30:34;;;;;;;;;;;15.20;57.20;;;;;;5100438;28;19961;-66
2022/04/09 07:33:00;;;;;;;;;;;15.20;57.10;;;;;;5100979;28;19916;-67
2022/04/09 07:35:26;;;;;;;;;;;15.30;57.30;;;;;;5101025;28;20069;-67
2022/04/09 07:37:55;;;;;;;;;;;15.20;57.20;;;;;;5100923;28;19915;-67
2022/04/09 07:40:24;;;;;;;;;;;15.20;57.20;;;;;;5100959;28;19900;-67
2022/04/09 07:42:50;;;;;;;;;;;15.20;57.20;;;;;;5100844;28;19976;-67
2022/04/09 07:45:16;;;;;;;;;;;15.30;57.20;;;;;;5099409;28;20191;-67
2022/04/09 07:47:42;;;;;;;;;;;15.20;57.20;;;;;;5100576;28;20013;-67
2022/04/09 07:50:10;;;;;;;;;;;15.20;57.20;;;;;;5100722;28;19946;-66
2022/04/09 07:52:42;;;;;;;;;;;15.20;57.10;;;;;;5100714;28;19900;-66
2022/04/09 07:55:11;;;;;;;;;;;15.20;57.20;;;;;;5100700;28;19907;-67
2022/04/09 07:57:37;;;;;;;;;;;15.20;57.10;;;;;;5100514;28;20115;-67
2022/04/09 08:00:03;;;;;;;;;;;15.20;57.10;;;;;;5100501;28;20259;-68
2022/04/09 08:02:28;;;;;;;;;;;15.20;57.10;;;;;;5100508;28;19908;-66
2022/04/09 08:04:54;;;;;;;;;;;15.20;57.10;;;;;;5100432;28;19908;-66
2022/04/09 08:07:20;;;;;;;;;;;15.20;57.10;;;;;;5100498;28;19908;-66
2022/04/09 08:09:45;;;;;;;;;;;15.30;57.20;;;;;;5100344;28;19908;-67
2022/04/09 08:12:15;;;;;;;;;;;15.30;57.10;;;;;;5100360;28;19907;-66
2022/04/09 08:14:41;;;;;;;;;;;15.20;57.10;;;;;;5100349;28;19907;-66
2022/04/09 08:17:07;;;;;;;;;;;15.20;57.10;;;;;;5100219;28;19908;-66
2022/04/09 08:19:34;;;;;;;;;;;15.20;57.00;;;;;;5100220;28;19979;-67
2022/04/09 08:22:00;;;;;;;;;;;15.30;57.10;;;;;;5100157;28;19908;-67
2022/04/09 08:24:26;;;;;;;;;;;15.20;57.00;;;;;;5100377;28;19923;-66
2022/04/09 08:26:51;;;;;;;;;;;15.20;57.10;;;;;;5100174;28;20213;-67
2022/04/09 08:29:19;;;;;;;;;;;15.20;57.10;;;;;;5100053;28;19908;-67
2022/04/09 08:31:47;;;;;;;;;;;15.20;57.00;;;;;;5100289;28;19950;-66
2022/04/09 08:34:17;;;;;;;;;;;15.20;57.10;;;;;;5100033;28;19907;-67
2022/04/09 08:36:43;;;;;;;;;;;15.30;57.20;;;;;;5099935;28;19947;-67
2022/04/09 08:39:08;;;;;;;;;;;15.20;57.00;;;;;;5100018;28;19907;-66
2022/04/09 08:41:44;;;;;;;;;;;15.20;57.00;;;;;;5105423;28;19923;-67
2022/04/09 08:44:10;;;;;;;;;;;15.20;57.10;;;;;;5106767;28;19907;-67
2022/04/09 08:46:38;;;;;;;;;;;15.20;57.80;;;;;;5106670;28;19907;-65
2022/04/09 08:49:04;;;;;;;;;;;15.20;57.10;;;;;;5106696;28;19946;-66
2022/04/09 08:51:31;;;;;;;;;;;15.20;57.10;;;;;;5106680;28;20234;-67
2022/04/09 08:53:57;;;;;;;;;;;15.20;57.10;;;;;;5106691;28;19935;-67
2022/04/09 08:56:22;;;;;;;;;;;15.20;57.10;;;;;;5106528;28;19908;-67
2022/04/09 08:58:48;;;;;;;;;;;15.20;57.10;;;;;;5106543;28;19908;-67
2022/04/09 09:01:14;;;;;;;;;;;15.30;57.10;;;;;;5106617;28;19916;-66
2022/04/09 09:03:40;;;;;;;;;;;15.30;57.10;;;;;;5106622;28;19914;-67
2022/04/09 09:06:27;;;;;;;;;;;15.20;57.00;;;;;;5106549;28;19900;-66
2022/04/09 09:08:52;;;;;;;;;;;15.20;57.00;;;;;;5106597;28;19908;-68
2022/04/09 09:11:19;;;;;;;;;;;15.20;57.10;;;;;;5106538;28;19908;-66
2022/04/09 09:13:52;;;;;;;;;;;15.20;57.10;;;;;;5106464;28;20011;-67
2022/04/09 09:16:22;;;;;;;;;;;15.30;57.20;;;;;;5106382;28;19907;-67
2022/04/09 09:18:49;;;;;;;;;;;15.20;57.00;;;;;;5106327;28;20142;-67
2022/04/09 09:21:17;;;;;;;;;;;15.20;57.10;;;;;;5106387;28;19912;-67
2022/04/09 09:23:43;;;;;;;;;;;15.30;57.10;;;;;;5106362;28;19929;-66
2022/04/09 09:26:08;;;;;;;;;;;15.30;57.10;;;;;;5106353;28;19975;-67
2022/04/09 09:28:34;;;;;;;;;;;15.30;57.10;;;;;;5106377;28;19943;-67
2022/04/09 09:31:00;;;;;;;;;;;15.20;57.10;;;;;;5104971;28;20107;-67
2022/04/09 09:33:26;;;;;;;;;;;15.20;57.00;;;;;;5106350;28;20129;-67
2022/04/09 09:35:54;;;;;;;;;;;15.30;57.10;;;;;;5106207;28;19908;-66
2022/04/09 09:38:21;;;;;;;;;;;15.20;57.00;;;;;;5106177;28;19911;-66
2022/04/09 09:40:46;;;;;;;;;;;15.20;57.00;;;;;;5106270;28;19952;-66
2022/04/09 09:43:12;;;;;;;;;;;15.20;57.10;;;;;;5106122;28;20092;-66
2022/04/09 09:45:38;;;;;;;;;;;15.20;57.10;;;;;;5106645;28;20044;-66
2022/04/09 09:48:04;;;;;;;;;;;15.20;57.10;;;;;;5106038;28;19937;-67
2022/04/09 09:50:39;;;;;;;;;;;15.20;57.10;;;;;;5106399;28;19974;-66
2022/04/09 09:53:05;;;;;;;;;;;15.20;57.10;;;;;;5102797;28;19908;-66
2022/04/09 09:55:40;;;;;;;;;;;15.30;57.20;;;;;;5102868;28;19968;-67
2022/04/09 09:58:06;;;;;;;;;;;15.20;57.10;;;;;;5102754;28;19912;-66
2022/04/09 10:00:31;;;;;;;;;;;15.20;57.10;;;;;;5102814;28;19923;-67
2022/04/09 10:02:58;;;;;;;;;;;15.20;57.20;;;;;;5102654;28;19915;-68
2022/04/09 10:05:24;;;;;;;;;;;15.20;57.10;;;;;;5102675;28;19982;-66
2022/04/09 10:07:50;;;;;;;;;;;15.20;57.20;;;;;;5102640;28;19908;-67
2022/04/09 10:10:16;;;;;;;;;;;15.20;57.20;;;;;;5102591;28;19945;-66
2022/04/09 10:12:41;;;;;;;;;;;15.20;57.10;;;;;;5102453;28;19939;-66
2022/04/09 10:15:07;;;;;;;;;;;15.20;57.10;;;;;;5102523;28;19912;-67
2022/04/09 10:17:34;;;;;;;;;;;15.20;57.10;;;;;;5102307;28;19911;-67
2022/04/09 10:20:02;;;;;;;;;;;15.20;57.10;;;;;;5102415;28;19948;-66
2022/04/09 10:22:29;;;;;;;;;;;15.20;57.00;;;;;;5102426;28;19908;-66
2022/04/09 10:24:55;;;;;;;;;;;15.20;57.00;;;;;;5100999;28;20302;-66
2022/04/09 10:27:38;;;;;;;;;;;15.30;57.10;;;;;;5102284;28;19931;-66
2022/04/09 10:30:16;;;;;;;;;;;15.30;57.00;;;;;;5102153;28;19970;-67
2022/04/09 10:32:42;;;;;;;;;;;15.20;56.90;;;;;;5102172;28;19964;-66
2022/04/09 10:35:27;;;;;;;;;;;15.20;56.90;;;;;;5102197;28;19906;-66
2022/04/09 10:38:07;;;;;;;;;;;15.20;56.90;;;;;;5101966;28;20287;-67
2022/04/09 10:40:33;;;;;;;;;;;15.30;57.00;;;;;;5102035;28;19922;-67
2022/04/09 10:43:01;;;;;;;;;;;15.20;57.00;;;;;;5102027;28;20124;-67
2022/04/09 10:45:30;;;;;;;;;;;15.20;56.90;;;;;;5102000;28;19931;-67
2022/04/09 10:48:07;;;;;;;;;;;15.20;56.90;;;;;;5101679;28;19926;-66
2022/04/09 10:50:51;;;;;;;;;;;15.20;56.90;;;;;;5101814;28;19900;-67
2022/04/09 10:53:19;;;;;;;;;;;15.20;56.90;;;;;;5100528;28;19953;-67
2022/04/09 10:56:04;;;;;;;;;;;15.20;56.80;;;;;;5101766;28;19936;-66
2022/04/09 10:58:30;;;;;;;;;;;15.20;56.90;;;;;;5101521;28;19915;-66
2022/04/09 11:00:55;;;;;;;;;;;15.20;56.90;;;;;;5101626;28;19996;-67
2022/04/09 11:03:27;;;;;;;;;;;15.30;57.00;;;;;;5100942;28;19900;-66
2022/04/09 11:06:12;;;;;;;;;;;15.20;56.90;;;;;;5101126;28;19908;-66
2022/04/09 11:08:39;;;;;;;;;;;15.30;56.90;;;;;;5101438;28;19900;-67
2022/04/09 11:11:05;;;;;;;;;;;15.20;56.90;;;;;;5101463;28;19988;-67
2022/04/09 11:13:30;;;;;;;;;;;15.20;56.90;;;;;;5101363;28;19957;-66
2022/04/09 11:15:56;;;;;;;;;;;15.20;56.80;;;;;;5101406;28;19900;-67
2022/04/09 11:18:22;;;;;;;;;;;15.30;56.90;;;;;;5101204;28;19935;-67
2022/04/09 11:20:49;;;;;;;;;;;15.30;56.80;;;;;;5101285;28;19900;-66
2022/04/09 11:23:14;;;;;;;;;;;15.20;56.80;;;;;;5101158;28;19915;-67
2022/04/09 11:25:42;;;;;;;;;;;15.20;56.90;;;;;;5101146;28;19908;-66
2022/04/09 11:28:13;;;;;;;;;;;15.30;56.90;;;;;;5101127;28;19978;-66
2022/04/09 11:30:54;;;;;;;;;;;15.20;56.90;;;;;;5101073;28;19908;-67
2022/04/09 11:33:20;;;;;;;;;;;15.20;56.90;;;;;;5101033;28;19995;-67
2022/04/09 11:35:46;;;;;;;;;;;15.20;56.90;;;;;;5100895;28;19900;-66
2022/04/09 11:38:12;;;;;;;;;;;15.20;56.80;;;;;;5100854;28;19962;-66
2022/04/09 11:40:46;;;;;;;;;;;15.20;56.80;;;;;;5100890;28;19908;-67
2022/04/09 11:43:13;;;;;;;;;;;15.20;56.80;;;;;;5099503;28;19914;-67
2022/04/09 11:45:39;;;;;;;;;;;15.30;57.40;;;;;;5100759;28;20001;-67
2022/04/09 11:48:04;;;;;;;;;;;15.30;56.80;;;;;;5100541;28;20131;-66
2022/04/09 11:50:39;;;;;;;;;;;15.30;56.80;;;;;;5100694;28;19908;-67
2022/04/09 11:53:14;;;;;;;;;;;15.30;56.80;;;;;;5100649;28;19908;-67
2022/04/09 11:55:41;;;;;;;;;;;15.20;56.80;;;;;;5100599;28;19908;-66
2022/04/09 11:58:07;;;;;;;;;;;15.30;56.90;;;;;;5100503;28;19904;-66
2022/04/09 12:00:36;;;;;;;;;;;15.30;56.80;;;;;;5100677;28;19907;-66
2022/04/09 12:03:03;;;;;;;;;;;15.30;56.80;;;;;;5100480;28;20037;-66
2022/04/09 12:05:34;;;;;;;;;;;15.30;56.80;;;;;;5100455;28;19908;-66
2022/04/09 12:07:59;;;;;;;;;;;15.20;56.80;;;;;;5100419;28;19908;-66
2022/04/09 12:10:26;;;;;;;;;;;15.30;56.90;;;;;;5100297;28;19908;-66
2022/04/09 12:12:58;;;;;;;;;;;15.30;56.90;;;;;;5098899;28;19904;-67
2022/04/09 12:15:29;;;;;;;;;;;15.20;56.80;;;;;;5099884;28;19974;-67
2022/04/09 12:17:55;;;;;;;;;;;15.20;56.90;;;;;;5100121;28;19982;-66
2022/04/09 12:20:29;;;;;;;;;;;15.20;57.00;;;;;;5100155;28;20191;-67
2022/04/09 12:22:56;;;;;;;;;;;15.20;57.00;;;;;;5100162;28;19947;-66
2022/04/09 12:25:34;;;;;;;;;;;15.20;56.90;;;;;;5100308;28;19906;-67
2022/04/09 12:27:59;;;;;;;;;;;15.20;56.90;;;;;;5100123;28;20409;-67
2022/04/09 12:30:47;;;;;;;;;;;15.20;56.90;;;;;;5100052;28;19930;-66
2022/04/09 12:33:13;;;;;;;;;;;15.20;56.90;;;;;;5099969;28;20015;-66
2022/04/09 12:35:39;;;;;;;;;;;15.20;56.90;;;;;;5100056;28;19919;-67
2022/04/09 12:38:05;;;;;;;;;;;15.20;56.90;;;;;;5099910;28;19912;-67
2022/04/09 12:40:32;;;;;;;;;;;15.20;57.00;;;;;;5099983;28;20196;-66
2022/04/09 12:43:00;;;;;;;;;;;15.20;56.90;;;;;;5099912;28;19989;-67
2022/04/09 12:45:27;;;;;;;;;;;15.20;56.90;;;;;;5099938;28;19900;-66
2022/04/09 12:47:56;;;;;;;;;;;15.20;56.90;;;;;;5099589;28;19923;-67
2022/04/09 12:50:27;;;;;;;;;;;15.20;56.90;;;;;;5099892;28;19953;-67
2022/04/09 12:52:54;;;;;;;;;;;15.20;56.90;;;;;;5100078;28;19915;-67
2022/04/09 12:55:20;;;;;;;;;;;15.20;56.90;;;;;;5099821;28;20020;-66
2022/04/09 12:57:45;;;;;;;;;;;15.20;56.90;;;;;;5099684;28;19963;-67
2022/04/09 13:00:12;;;;;;;;;;;15.20;56.90;;;;;;5099801;28;20331;-66
2022/04/09 13:02:37;;;;;;;;;;;15.20;56.90;;;;;;5099728;28;19915;-67
2022/04/09 13:05:04;;;;;;;;;;;15.20;57.60;;;;;;5099671;28;19924;-66
2022/04/09 13:07:30;;;;;;;;;;;15.20;57.00;;;;;;5099736;28;20241;-66
2022/04/09 13:09:55;;;;;;;;;;;15.20;56.90;;;;;;5099649;28;19908;-67
2022/04/09 13:12:21;;;;;;;;;;;15.20;56.90;;;;;;5099645;28;19907;-66
2022/04/09 13:14:46;;;;;;;;;;;15.20;56.90;;;;;;5099655;28;20200;-66
2022/04/09 13:17:12;;;;;;;;;;;15.20;56.90;;;;;;5099482;28;20211;-66
2022/04/09 13:19:37;;;;;;;;;;;15.20;56.90;;;;;;5099559;28;19900;-66
2022/04/09 13:22:03;;;;;;;;;;;15.20;56.90;;;;;;5099722;28;19979;-67
2022/04/09 13:24:29;;;;;;;;;;;15.20;56.90;;;;;;5099704;28;19907;-68
2022/04/09 13:26:54;;;;;;;;;;;15.20;57.00;;;;;;5099749;28;20191;-67
2022/04/09 13:29:20;;;;;;;;;;;15.20;56.90;;;;;;5103379;28;20214;-66
2022/04/09 13:31:46;;;;;;;;;;;15.20;56.90;;;;;;5103307;28;19900;-67
2022/04/09 13:34:14;;;;;;;;;;;15.20;56.90;;;;;;5103227;28;20162;-67
2022/04/09 13:36:40;;;;;;;;;;;15.20;56.90;;;;;;5103131;28;20131;-67
2022/04/09 13:39:06;;;;;;;;;;;15.20;56.90;;;;;;5103196;28;19900;-66
2022/04/09 13:41:32;;;;;;;;;;;15.20;56.90;;;;;;5103346;28;19908;-67
2022/04/09 13:43:58;;;;;;;;;;;15.20;56.90;;;;;;5103111;28;20134;-66
2022/04/09 13:46:23;;;;;;;;;;;15.20;56.90;;;;;;5103182;28;19953;-66
2022/04/09 13:48:49;;;;;;;;;;;15.20;56.90;;;;;;5102813;28;20111;-66
2022/04/09 13:51:15;;;;;;;;;;;15.20;56.90;;;;;;5102895;28;19963;-66
2022/04/09 13:53:40;;;;;;;;;;;15.20;56.90;;;;;;5102908;28;19908;-67
2022/04/09 13:56:06;;;;;;;;;;;15.20;56.90;;;;;;5102859;28;20150;-66
2022/04/09 13:58:32;;;;;;;;;;;15.20;56.90;;;;;;5102731;28;20037;-67
2022/04/09 14:00:57;;;;;;;;;;;15.20;56.80;;;;;;5102767;28;19969;-66
2022/04/09 14:03:23;;;;;;;;;;;15.30;56.90;;;;;;5102701;28;19908;-67
2022/04/09 14:05:48;;;;;;;;;;;15.20;56.70;;;;;;5102572;28;19915;-66
2022/04/09 14:08:15;;;;;;;;;;;15.30;56.70;;;;;;5102623;28;19985;-67
2022/04/09 14:10:41;;;;;;;;;;;15.30;56.70;;;;;;5102509;28;19915;-67
2022/04/09 14:13:07;;;;;;;;;;;15.30;56.60;;;;;;5102571;28;19908;-67
2022/04/09 14:15:33;;;;;;;;;;;15.30;56.60;;;;;;5102355;28;20156;-67
2022/04/09 14:17:58;;;;;;;;;;;15.30;56.50;;;;;;5102494;28;19911;-66